sensor_id;sensor_type;location;lat;lon;timestamp;pressure;altitude;pressure_sealevel;temperature;humidity
51926;BME280;37952;51.938;15.480;2023-05-13T00:01:15;100285.61;;;14.62;40.58
51926;BME280;37952;51.938;15.480;2023-05-13T00:04:20;100282.98;;;14.56;40.44
51926;BME280;37952;51.938;15.480;2023-05-13T00:07:23;100281.65;;;14.50;40.54
51926;BME280;37952;51.938;15.480;2023-05-13T00:10:25;100281.70;;;14.46;40.52
51926;BME280;37952;51.938;15.480;2023-05-13T00:13:28;100278.92;;;14.43;40.70
51926;BME280;37952;51.938;15.480;2023-05-13T00:16:30;100285.33;;;14.40;40.75
51926;BME280;37952;51.938;15.480;2023-05-13T00:19:33;100284.49;;;14.37;40.71
51926;BME280;37952;51.938;15.480;2023-05-13T00:22:36;100279.34;;;14.34;40.68
51926;BME280;37952;51.938;15.480;2023-05-13T00:25:39;100279.32;;;14.32;40.82
51926;BME280;37952;51.938;15.480;2023-05-13T00:28:43;100279.77;;;14.28;40.65
51926;BME280;37952;51.938;15.480;2023-05-13T00:31:46;100286.50;;;14.25;40.73
51926;BME280;37952;51.938;15.480;2023-05-13T00:34:48;100290.34;;;14.21;40.87
51926;BME280;37952;51.938;15.480;2023-05-13T00:37:51;100284.60;;;14.09;40.79
51926;BME280;37952;51.938;15.480;2023-05-13T00:40:54;100295.76;;;14.06;40.80
51926;BME280;37952;51.938;15.480;2023-05-13T00:43:56;100296.31;;;14.00;40.95
51926;BME280;37952;51.938;15.480;2023-05-13T00:46:59;100295.64;;;13.94;41.08
51926;BME280;37952;51.938;15.480;2023-05-13T00:50:02;100293.14;;;13.89;41.15
51926;BME280;37952;51.938;15.480;2023-05-13T00:53:05;100293.41;;;13.85;41.32
51926;BME280;37952;51.938;15.480;2023-05-13T00:56:07;100292.08;;;13.81;41.15
51926;BME280;37952;51.938;15.480;2023-05-13T00:59:10;100290.98;;;13.79;41.14
51926;BME280;37952;51.938;15.480;2023-05-13T01:02:24;100294.40;;;13.75;41.33
51926;BME280;37952;51.938;15.480;2023-05-13T01:09:12;100297.66;;;13.69;41.29
51926;BME280;37952;51.938;15.480;2023-05-13T01:12:25;100298.63;;;13.67;41.19
51926;BME280;37952;51.938;15.480;2023-05-13T01:15:31;100301.48;;;13.65;41.17
51926;BME280;37952;51.938;15.480;2023-05-13T01:18:36;100304.46;;;13.65;41.12
51926;BME280;37952;51.938;15.480;2023-05-13T01:21:50;100305.40;;;13.61;41.43
51926;BME280;37952;51.938;15.480;2023-05-13T01:24:53;100307.90;;;13.58;41.33
51926;BME280;37952;51.938;15.480;2023-05-13T01:27:56;100307.84;;;13.56;41.31
51926;BME280;37952;51.938;15.480;2023-05-13T01:30:58;100308.96;;;13.52;41.34
51926;BME280;37952;51.938;15.480;2023-05-13T01:34:02;100309.45;;;13.47;41.56
51926;BME280;37952;51.938;15.480;2023-05-13T01:37:05;100304.30;;;13.45;41.44
51926;BME280;37952;51.938;15.480;2023-05-13T01:40:09;100307.77;;;13.43;41.51
51926;BME280;37952;51.938;15.480;2023-05-13T01:43:32;100304.79;;;13.40;41.59
51926;BME280;37952;51.938;15.480;2023-05-13T01:46:37;100304.30;;;13.36;41.65
51926;BME280;37952;51.938;15.480;2023-05-13T01:49:40;100299.71;;;13.27;41.43
51926;BME280;37952;51.938;15.480;2023-05-13T01:52:42;100310.57;;;13.32;41.37
51926;BME280;37952;51.938;15.480;2023-05-13T01:55:45;100315.98;;;13.30;41.33
51926;BME280;37952;51.938;15.480;2023-05-13T01:58:48;100312.40;;;13.28;41.33
51926;BME280;37952;51.938;15.480;2023-05-13T02:01:51;100312.38;;;13.26;41.28
51926;BME280;37952;51.938;15.480;2023-05-13T02:04:53;100311.90;;;13.25;41.23
51926;BME280;37952;51.938;15.480;2023-05-13T02:07:56;100312.69;;;13.24;41.16
51926;BME280;37952;51.938;15.480;2023-05-13T02:10:59;100317.34;;;13.23;41.19
51926;BME280;37952;51.938;15.480;2023-05-13T02:14:02;100314.46;;;13.21;41.27
51926;BME280;37952;51.938;15.480;2023-05-13T02:17:05;100314.01;;;13.20;41.32
51926;BME280;37952;51.938;15.480;2023-05-13T02:20:08;100316.27;;;13.17;41.16
51926;BME280;37952;51.938;15.480;2023-05-13T02:23:11;100291.73;;;13.02;41.24
51926;BME280;37952;51.938;15.480;2023-05-13T02:26:14;100315.39;;;13.17;41.55
51926;BME280;37952;51.938;15.480;2023-05-13T02:29:16;100314.72;;;13.14;41.58
51926;BME280;37952;51.938;15.480;2023-05-13T02:32:19;100313.35;;;13.10;41.55
51926;BME280;37952;51.938;15.480;2023-05-13T02:35:22;100317.40;;;13.08;41.67
51926;BME280;37952;51.938;15.480;2023-05-13T02:38:26;100316.08;;;13.03;41.83
51926;BME280;37952;51.938;15.480;2023-05-13T02:41:29;100319.34;;;12.96;41.91
51926;BME280;37952;51.938;15.480;2023-05-13T02:44:32;100316.95;;;12.92;42.09
51926;BME280;37952;51.938;15.480;2023-05-13T02:47:34;100319.41;;;12.86;42.08
51926;BME280;37952;51.938;15.480;2023-05-13T02:50:37;100320.34;;;12.83;42.25
51926;BME280;37952;51.938;15.480;2023-05-13T02:53:41;100317.63;;;12.77;42.61
51926;BME280;37952;51.938;15.480;2023-05-13T02:56:44;100318.52;;;12.72;42.64
51926;BME280;37952;51.938;15.480;2023-05-13T02:59:47;100322.03;;;12.66;42.77
51926;BME280;37952;51.938;15.480;2023-05-13T03:02:49;100319.56;;;12.60;43.09
51926;BME280;37952;51.938;15.480;2023-05-13T03:05:52;100321.48;;;12.52;43.12
51926;BME280;37952;51.938;15.480;2023-05-13T03:08:55;100318.93;;;12.44;43.28
51926;BME280;37952;51.938;15.480;2023-05-13T03:11:57;100322.92;;;12.39;43.28
51926;BME280;37952;51.938;15.480;2023-05-13T03:15:00;100323.90;;;12.35;43.55
51926;BME280;37952;51.938;15.480;2023-05-13T03:18:02;100320.34;;;12.29;43.39
51926;BME280;37952;51.938;15.480;2023-05-13T03:21:05;100325.21;;;12.24;43.51
51926;BME280;37952;51.938;15.480;2023-05-13T03:24:08;100326.27;;;12.18;43.70
51926;BME280;37952;51.938;15.480;2023-05-13T03:27:10;100327.80;;;12.16;43.67
51926;BME280;37952;51.938;15.480;2023-05-13T03:30:13;100331.34;;;12.13;43.82
51926;BME280;37952;51.938;15.480;2023-05-13T03:33:16;100330.30;;;12.12;43.90
51926;BME280;37952;51.938;15.480;2023-05-13T03:36:19;100328.92;;;12.12;43.93
51926;BME280;37952;51.938;15.480;2023-05-13T03:39:21;100329.55;;;12.10;43.95
51926;BME280;37952;51.938;15.480;2023-05-13T03:42:24;100332.62;;;12.05;44.45
51926;BME280;37952;51.938;15.480;2023-05-13T03:45:27;100331.23;;;11.98;44.44
51926;BME280;37952;51.938;15.480;2023-05-13T03:48:30;100335.40;;;11.94;44.49
51926;BME280;37952;51.938;15.480;2023-05-13T03:51:32;100340.95;;;11.92;44.55
51926;BME280;37952;51.938;15.480;2023-05-13T03:54:35;100341.23;;;11.90;45.00
51926;BME280;37952;51.938;15.480;2023-05-13T03:57:38;100341.95;;;11.87;44.41
51926;BME280;37952;51.938;15.480;2023-05-13T04:00:41;100343.64;;;11.88;44.50
51926;BME280;37952;51.938;15.480;2023-05-13T04:03:48;100341.50;;;11.85;44.56
51926;BME280;37952;51.938;15.480;2023-05-13T04:06:51;100346.56;;;11.90;44.49
51926;BME280;37952;51.938;15.480;2023-05-13T04:09:55;100347.83;;;11.89;44.83
51926;BME280;37952;51.938;15.480;2023-05-13T04:12:57;100352.55;;;11.90;44.71
51926;BME280;37952;51.938;15.480;2023-05-13T04:16:00;100353.41;;;11.91;44.72
51926;BME280;37952;51.938;15.480;2023-05-13T04:19:03;100349.52;;;11.94;44.74
51926;BME280;37952;51.938;15.480;2023-05-13T04:22:06;100352.58;;;11.96;45.16
51926;BME280;37952;51.938;15.480;2023-05-13T04:25:09;100351.88;;;11.96;44.76
51926;BME280;37952;51.938;15.480;2023-05-13T04:28:11;100352.39;;;11.96;44.80
51926;BME280;37952;51.938;15.480;2023-05-13T04:31:14;100353.40;;;11.94;45.06
51926;BME280;37952;51.938;15.480;2023-05-13T04:34:16;100357.98;;;11.94;45.25
51926;BME280;37952;51.938;15.480;2023-05-13T04:37:19;100362.72;;;11.95;45.15
51926;BME280;37952;51.938;15.480;2023-05-13T04:40:22;100364.87;;;11.94;45.44
51926;BME280;37952;51.938;15.480;2023-05-13T04:43:25;100361.77;;;11.93;45.71
51926;BME280;37952;51.938;15.480;2023-05-13T04:46:27;100365.36;;;11.92;45.40
51926;BME280;37952;51.938;15.480;2023-05-13T04:49:30;100363.98;;;11.94;45.78
51926;BME280;37952;51.938;15.480;2023-05-13T04:52:33;100360.48;;;11.94;45.35
51926;BME280;37952;51.938;15.480;2023-05-13T04:55:36;100364.29;;;11.95;45.61
51926;BME280;37952;51.938;15.480;2023-05-13T04:58:38;100368.02;;;11.98;45.44
51926;BME280;37952;51.938;15.480;2023-05-13T05:01:41;100367.12;;;12.01;45.32
51926;BME280;37952;51.938;15.480;2023-05-13T05:04:44;100372.41;;;12.04;45.39
51926;BME280;37952;51.938;15.480;2023-05-13T05:07:47;100371.96;;;12.07;45.59
51926;BME280;37952;51.938;15.480;2023-05-13T05:10:49;100373.12;;;12.08;45.31
51926;BME280;37952;51.938;15.480;2023-05-13T05:13:52;100377.27;;;12.10;45.35
51926;BME280;37952;51.938;15.480;2023-05-13T05:16:55;100374.43;;;12.13;45.23
51926;BME280;37952;51.938;15.480;2023-05-13T05:19:58;100379.18;;;12.20;45.34
51926;BME280;37952;51.938;15.480;2023-05-13T05:23:01;100379.48;;;12.24;45.06
51926;BME280;37952;51.938;15.480;2023-05-13T05:26:04;100375.92;;;12.27;45.06
51926;BME280;37952;51.938;15.480;2023-05-13T05:29:13;100385.11;;;12.27;44.96
51926;BME280;37952;51.938;15.480;2023-05-13T05:32:16;100389.21;;;12.27;44.88
51926;BME280;37952;51.938;15.480;2023-05-13T05:35:18;100395.02;;;12.27;45.42
51926;BME280;37952;51.938;15.480;2023-05-13T05:38:21;100397.55;;;12.29;45.12
51926;BME280;37952;51.938;15.480;2023-05-13T05:41:26;100398.30;;;12.28;45.54
51926;BME280;37952;51.938;15.480;2023-05-13T05:44:29;100400.92;;;12.32;45.01
51926;BME280;37952;51.938;15.480;2023-05-13T05:47:32;100402.30;;;12.36;45.28
51926;BME280;37952;51.938;15.480;2023-05-13T05:50:34;100409.28;;;12.37;45.21
51926;BME280;37952;51.938;15.480;2023-05-13T05:53:38;100410.91;;;12.40;45.51
51926;BME280;37952;51.938;15.480;2023-05-13T05:56:42;100407.68;;;12.44;45.34
51926;BME280;37952;51.938;15.480;2023-05-13T05:59:45;100403.27;;;12.44;45.56
51926;BME280;37952;51.938;15.480;2023-05-13T06:02:47;100406.37;;;12.45;45.87
51926;BME280;37952;51.938;15.480;2023-05-13T06:05:51;100409.44;;;12.50;45.72
51926;BME280;37952;51.938;15.480;2023-05-13T06:08:54;100403.00;;;12.51;45.80
51926;BME280;37952;51.938;15.480;2023-05-13T06:11:56;100401.63;;;12.54;45.78
51926;BME280;37952;51.938;15.480;2023-05-13T06:15:00;100405.52;;;12.57;45.73
51926;BME280;37952;51.938;15.480;2023-05-13T06:18:03;100402.58;;;12.62;45.69
51926;BME280;37952;51.938;15.480;2023-05-13T06:21:07;100400.97;;;12.69;45.74
51926;BME280;37952;51.938;15.480;2023-05-13T06:24:09;100398.45;;;12.75;45.97
51926;BME280;37952;51.938;15.480;2023-05-13T06:27:12;100399.54;;;12.83;45.86
51926;BME280;37952;51.938;15.480;2023-05-13T06:30:15;100398.64;;;12.89;45.82
51926;BME280;37952;51.938;15.480;2023-05-13T06:33:18;100391.91;;;12.96;45.67
51926;BME280;37952;51.938;15.480;2023-05-13T06:36:20;100395.30;;;13.01;45.63
51926;BME280;37952;51.938;15.480;2023-05-13T06:39:23;100393.13;;;13.08;45.99
51926;BME280;37952;51.938;15.480;2023-05-13T06:42:26;100398.14;;;13.16;45.52
51926;BME280;37952;51.938;15.480;2023-05-13T06:45:29;100398.02;;;13.24;45.61
51926;BME280;37952;51.938;15.480;2023-05-13T06:48:31;100401.80;;;13.31;45.49
51926;BME280;37952;51.938;15.480;2023-05-13T06:51:34;100401.29;;;13.40;45.70
51926;BME280;37952;51.938;15.480;2023-05-13T06:54:37;100399.27;;;13.50;45.62
51926;BME280;37952;51.938;15.480;2023-05-13T06:57:39;100400.66;;;13.59;45.39
51926;BME280;37952;51.938;15.480;2023-05-13T07:00:45;100395.08;;;13.66;45.31
51926;BME280;37952;51.938;15.480;2023-05-13T07:03:48;100398.80;;;13.72;45.13
51926;BME280;37952;51.938;15.480;2023-05-13T07:06:51;100400.33;;;13.81;44.73
51926;BME280;37952;51.938;15.480;2023-05-13T07:09:53;100396.55;;;13.87;44.62
51926;BME280;37952;51.938;15.480;2023-05-13T07:12:56;100397.35;;;13.92;44.59
51926;BME280;37952;51.938;15.480;2023-05-13T07:16:00;100392.89;;;13.98;44.48
51926;BME280;37952;51.938;15.480;2023-05-13T07:19:03;100390.58;;;14.06;44.45
51926;BME280;37952;51.938;15.480;2023-05-13T07:22:06;100393.57;;;14.18;44.14
51926;BME280;37952;51.938;15.480;2023-05-13T07:25:09;100391.33;;;14.28;43.98
51926;BME280;37952;51.938;15.480;2023-05-13T07:28:12;100387.86;;;14.37;43.72
51926;BME280;37952;51.938;15.480;2023-05-13T07:31:14;100387.04;;;14.47;43.41
51926;BME280;37952;51.938;15.480;2023-05-13T07:34:17;100389.88;;;14.58;42.93
51926;BME280;37952;51.938;15.480;2023-05-13T07:37:20;100387.98;;;14.62;42.37
51926;BME280;37952;51.938;15.480;2023-05-13T07:40:23;100381.73;;;14.68;42.83
51926;BME280;37952;51.938;15.480;2023-05-13T07:43:25;100379.55;;;14.77;42.01
51926;BME280;37952;51.938;15.480;2023-05-13T07:46:29;100377.18;;;14.86;42.02
51926;BME280;37952;51.938;15.480;2023-05-13T07:49:31;100374.95;;;14.93;41.78
51926;BME280;37952;51.938;15.480;2023-05-13T07:52:34;100369.61;;;14.98;41.25
51926;BME280;37952;51.938;15.480;2023-05-13T07:55:37;100369.19;;;15.04;41.36
51926;BME280;37952;51.938;15.480;2023-05-13T07:58:40;100370.35;;;15.13;41.22
51926;BME280;37952;51.938;15.480;2023-05-13T08:06:06;100369.11;;;15.34;40.76
51926;BME280;37952;51.938;15.480;2023-05-13T08:09:19;100369.20;;;15.47;39.95
51926;BME280;37952;51.938;15.480;2023-05-13T08:12:22;100359.74;;;15.53;38.97
51926;BME280;37952;51.938;15.480;2023-05-13T08:19:16;100360.55;;;15.64;39.36
51926;BME280;37952;51.938;15.480;2023-05-13T08:22:19;100351.21;;;15.73;39.30
51926;BME280;37952;51.938;15.480;2023-05-13T08:25:21;100348.20;;;15.80;38.73
51926;BME280;37952;51.938;15.480;2023-05-13T08:32:31;100353.36;;;15.95;38.17
51926;BME280;37952;51.938;15.480;2023-05-13T08:35:33;100355.98;;;16.01;38.21
51926;BME280;37952;51.938;15.480;2023-05-13T08:38:36;100351.08;;;16.09;38.43
51926;BME280;37952;51.938;15.480;2023-05-13T08:45:33;100350.52;;;16.27;37.78
51926;BME280;37952;51.938;15.480;2023-05-13T08:48:39;100354.83;;;16.33;37.84
51926;BME280;37952;51.938;15.480;2023-05-13T08:51:47;100356.52;;;16.39;37.55
51926;BME280;37952;51.938;15.480;2023-05-13T08:54:49;100347.29;;;16.43;37.55
51926;BME280;37952;51.938;15.480;2023-05-13T09:02:03;100346.36;;;16.51;36.42
51926;BME280;37952;51.938;15.480;2023-05-13T09:09:25;100338.64;;;16.64;37.43
51926;BME280;37952;51.938;15.480;2023-05-13T09:12:52;100342.77;;;16.70;37.38
51926;BME280;37952;51.938;15.480;2023-05-13T09:15:55;100334.93;;;16.77;37.16
51926;BME280;37952;51.938;15.480;2023-05-13T09:19:01;100334.40;;;16.84;37.46
51926;BME280;37952;51.938;15.480;2023-05-13T09:22:16;100335.97;;;16.94;37.64
51926;BME280;37952;51.938;15.480;2023-05-13T09:25:26;100332.77;;;17.03;37.88
51926;BME280;37952;51.938;15.480;2023-05-13T09:28:29;100337.84;;;17.12;36.92
51926;BME280;37952;51.938;15.480;2023-05-13T09:31:32;100342.61;;;17.17;37.23
51926;BME280;37952;51.938;15.480;2023-05-13T09:34:35;100338.21;;;17.21;37.07
51926;BME280;37952;51.938;15.480;2023-05-13T09:37:38;100337.45;;;17.25;36.94
51926;BME280;37952;51.938;15.480;2023-05-13T09:40:48;100342.66;;;17.29;36.24
51926;BME280;37952;51.938;15.480;2023-05-13T09:43:51;100335.75;;;17.36;36.84
51926;BME280;37952;51.938;15.480;2023-05-13T09:46:54;100346.63;;;17.38;36.88
51926;BME280;37952;51.938;15.480;2023-05-13T09:50:00;100337.79;;;17.44;37.04
51926;BME280;37952;51.938;15.480;2023-05-13T09:53:09;100337.70;;;17.52;37.20
51926;BME280;37952;51.938;15.480;2023-05-13T09:56:18;100341.19;;;17.60;37.17
51926;BME280;37952;51.938;15.480;2023-05-13T09:59:23;100340.88;;;17.68;37.29
51926;BME280;37952;51.938;15.480;2023-05-13T10:06:33;100340.32;;;17.88;37.70
51926;BME280;37952;51.938;15.480;2023-05-13T10:09:36;100339.22;;;18.01;37.85
51926;BME280;37952;51.938;15.480;2023-05-13T10:12:40;100339.98;;;18.12;37.69
51926;BME280;37952;51.938;15.480;2023-05-13T10:15:52;100337.05;;;18.15;37.52
51926;BME280;37952;51.938;15.480;2023-05-13T10:18:56;100327.29;;;18.27;37.76
51926;BME280;37952;51.938;15.480;2023-05-13T10:22:00;100335.17;;;18.42;37.51
51926;BME280;37952;51.938;15.480;2023-05-13T10:25:04;100337.01;;;18.67;37.13
51926;BME280;37952;51.938;15.480;2023-05-13T10:28:07;100326.35;;;18.89;36.99
51926;BME280;37952;51.938;15.480;2023-05-13T10:31:12;100339.34;;;19.09;36.60
51926;BME280;37952;51.938;15.480;2023-05-13T10:38:48;100346.52;;;19.42;35.97
51926;BME280;37952;51.938;15.480;2023-05-13T10:42:25;100348.67;;;19.56;36.09
51926;BME280;37952;51.938;15.480;2023-05-13T10:49:37;100341.69;;;19.90;35.92
51926;BME280;37952;51.938;15.480;2023-05-13T10:52:54;100337.17;;;19.94;35.56
51926;BME280;37952;51.938;15.480;2023-05-13T10:55:58;100339.33;;;20.02;35.67
51926;BME280;37952;51.938;15.480;2023-05-13T10:59:03;100341.88;;;20.20;35.47
51926;BME280;37952;51.938;15.480;2023-05-13T11:02:22;100341.81;;;20.31;35.48
51926;BME280;37952;51.938;15.480;2023-05-13T11:05:25;100338.97;;;20.18;35.55
51926;BME280;37952;51.938;15.480;2023-05-13T11:08:50;100341.73;;;20.21;35.91
51926;BME280;37952;51.938;15.480;2023-05-13T11:11:58;100335.05;;;20.59;35.48
51926;BME280;37952;51.938;15.480;2023-05-13T11:15:01;100338.21;;;20.94;35.46
51926;BME280;37952;51.938;15.480;2023-05-13T11:18:04;100338.63;;;21.15;34.65
51926;BME280;37952;51.938;15.480;2023-05-13T11:21:07;100340.85;;;21.18;34.49
51926;BME280;37952;51.938;15.480;2023-05-13T11:31:58;100337.85;;;21.43;34.43
51926;BME280;37952;51.938;15.480;2023-05-13T11:35:02;100347.81;;;21.53;33.48
51926;BME280;37952;51.938;15.480;2023-05-13T11:38:05;100350.86;;;21.52;33.65
51926;BME280;37952;51.938;15.480;2023-05-13T11:41:08;100349.27;;;21.68;33.40
51926;BME280;37952;51.938;15.480;2023-05-13T11:51:40;100348.96;;;21.64;33.66
51926;BME280;37952;51.938;15.480;2023-05-13T11:58:29;100346.83;;;21.77;33.41
51926;BME280;37952;51.938;15.480;2023-05-13T12:01:32;100341.48;;;21.72;33.42
51926;BME280;37952;51.938;15.480;2023-05-13T12:04:35;100341.35;;;21.83;32.80
51926;BME280;37952;51.938;15.480;2023-05-13T12:07:38;100346.23;;;22.01;32.96
51926;BME280;37952;51.938;15.480;2023-05-13T12:10:44;100343.63;;;21.97;32.36
51926;BME280;37952;51.938;15.480;2023-05-13T12:13:47;100347.96;;;21.76;32.55
51926;BME280;37952;51.938;15.480;2023-05-13T12:16:55;100351.41;;;21.53;32.60
51926;BME280;37952;51.938;15.480;2023-05-13T12:28:28;100369.01;;;20.56;34.77
51926;BME280;37952;51.938;15.480;2023-05-13T12:31:31;100366.69;;;20.60;34.60
51926;BME280;37952;51.938;15.480;2023-05-13T12:34:34;100363.34;;;20.59;34.89
51926;BME280;37952;51.938;15.480;2023-05-13T12:37:37;100362.41;;;20.48;34.37
51926;BME280;37952;51.938;15.480;2023-05-13T12:40:39;100365.11;;;20.28;34.94
51926;BME280;37952;51.938;15.480;2023-05-13T12:43:42;100364.98;;;20.14;35.24
51926;BME280;37952;51.938;15.480;2023-05-13T12:46:57;100367.45;;;20.00;35.46
51926;BME280;37952;51.938;15.480;2023-05-13T12:50:04;100362.27;;;19.88;35.75
51926;BME280;37952;51.938;15.480;2023-05-13T12:53:06;100362.80;;;19.88;35.66
51926;BME280;37952;51.938;15.480;2023-05-13T12:56:09;100363.96;;;19.95;35.59
51926;BME280;37952;51.938;15.480;2023-05-13T12:59:12;100362.27;;;20.02;35.38
51926;BME280;37952;51.938;15.480;2023-05-13T13:02:16;100360.44;;;20.32;35.52
51926;BME280;37952;51.938;15.480;2023-05-13T13:05:19;100360.56;;;20.79;34.78
51926;BME280;37952;51.938;15.480;2023-05-13T13:08:23;100364.59;;;20.88;34.31
51926;BME280;37952;51.938;15.480;2023-05-13T13:11:26;100365.14;;;20.70;34.14
51926;BME280;37952;51.938;15.480;2023-05-13T13:14:28;100373.39;;;20.43;34.47
51926;BME280;37952;51.938;15.480;2023-05-13T13:21:25;100383.09;;;19.79;37.90
51926;BME280;37952;51.938;15.480;2023-05-13T13:28:30;100386.48;;;19.34;38.99
51926;BME280;37952;51.938;15.480;2023-05-13T13:31:33;100388.33;;;19.10;38.63
51926;BME280;37952;51.938;15.480;2023-05-13T13:38:37;100379.39;;;18.62;37.23
51926;BME280;37952;51.938;15.480;2023-05-13T13:41:39;100377.06;;;18.47;37.20
51926;BME280;37952;51.938;15.480;2023-05-13T13:44:42;100371.73;;;18.45;37.31
51926;BME280;37952;51.938;15.480;2023-05-13T13:51:51;100366.67;;;18.52;37.41
51926;BME280;37952;51.938;15.480;2023-05-13T13:54:54;100361.37;;;18.66;37.27
51926;BME280;37952;51.938;15.480;2023-05-13T13:57:57;100363.30;;;18.98;37.18
51926;BME280;37952;51.938;15.480;2023-05-13T14:00:59;100358.82;;;19.54;36.97
51926;BME280;37952;51.938;15.480;2023-05-13T14:12:15;100343.45;;;22.09;34.57
51926;BME280;37952;51.938;15.480;2023-05-13T14:15:17;100348.07;;;22.58;33.08
51926;BME280;37952;51.938;15.480;2023-05-13T14:18:20;100350.20;;;22.59;32.66
51926;BME280;37952;51.938;15.480;2023-05-13T14:21:23;100348.61;;;22.35;31.14
51926;BME280;37952;51.938;15.480;2023-05-13T14:24:26;100347.32;;;21.92;29.98
51926;BME280;37952;51.938;15.480;2023-05-13T14:27:29;100342.56;;;21.97;28.69
51926;BME280;37952;51.938;15.480;2023-05-13T14:30:31;100337.46;;;22.19;29.52
51926;BME280;37952;51.938;15.480;2023-05-13T14:33:34;100334.22;;;22.41;29.78
51926;BME280;37952;51.938;15.480;2023-05-13T14:36:37;100334.48;;;22.49;28.16
51926;BME280;37952;51.938;15.480;2023-05-13T14:39:40;100331.65;;;22.66;29.02
51926;BME280;37952;51.938;15.480;2023-05-13T14:43:09;100329.89;;;22.82;27.54
51926;BME280;37952;51.938;15.480;2023-05-13T14:46:12;100325.62;;;23.04;27.37
51926;BME280;37952;51.938;15.480;2023-05-13T14:49:15;100329.05;;;23.13;26.96
51926;BME280;37952;51.938;15.480;2023-05-13T14:55:54;100332.77;;;23.30;26.09
51926;BME280;37952;51.938;15.480;2023-05-13T14:58:57;100324.86;;;23.53;26.40
51926;BME280;37952;51.938;15.480;2023-05-13T15:05:56;100328.76;;;23.64;26.67
51926;BME280;37952;51.938;15.480;2023-05-13T15:08:59;100330.05;;;23.53;26.32
51926;BME280;37952;51.938;15.480;2023-05-13T15:15:54;100328.98;;;23.44;25.44
51926;BME280;37952;51.938;15.480;2023-05-13T15:18:56;100324.81;;;23.45;26.06
51926;BME280;37952;51.938;15.480;2023-05-13T15:25:50;100334.66;;;23.64;26.25
51926;BME280;37952;51.938;15.480;2023-05-13T15:28:53;100326.40;;;23.86;25.18
51926;BME280;37952;51.938;15.480;2023-05-13T15:31:56;100327.34;;;24.18;25.52
51926;BME280;37952;51.938;15.480;2023-05-13T15:34:59;100322.55;;;24.81;24.74
51926;BME280;37952;51.938;15.480;2023-05-13T15:38:02;100314.26;;;25.61;23.17
51926;BME280;37952;51.938;15.480;2023-05-13T15:41:05;100312.66;;;25.66;23.45
51926;BME280;37952;51.938;15.480;2023-05-13T15:51:50;100313.72;;;24.51;24.20
51926;BME280;37952;51.938;15.480;2023-05-13T15:54:54;100315.31;;;24.10;24.42
51926;BME280;37952;51.938;15.480;2023-05-13T15:57:57;100308.43;;;23.72;25.26
51926;BME280;37952;51.938;15.480;2023-05-13T16:00:59;100310.59;;;23.52;25.84
51926;BME280;37952;51.938;15.480;2023-05-13T16:04:02;100303.92;;;23.29;25.73
51926;BME280;37952;51.938;15.480;2023-05-13T16:07:04;100303.81;;;23.06;25.83
51926;BME280;37952;51.938;15.480;2023-05-13T16:10:12;100304.02;;;22.66;25.81
51926;BME280;37952;51.938;15.480;2023-05-13T16:13:15;100302.73;;;22.27;26.35
51926;BME280;37952;51.938;15.480;2023-05-13T16:16:19;100303.65;;;21.96;26.81
51926;BME280;37952;51.938;15.480;2023-05-13T16:19:22;100302.34;;;21.79;27.46
51926;BME280;37952;51.938;15.480;2023-05-13T16:22:32;100301.89;;;21.68;27.60
51926;BME280;37952;51.938;15.480;2023-05-13T16:25:37;100297.92;;;21.52;27.53
51926;BME280;37952;51.938;15.480;2023-05-13T16:28:40;100288.33;;;21.44;27.73
51926;BME280;37952;51.938;15.480;2023-05-13T16:31:43;100288.92;;;21.34;27.73
51926;BME280;37952;51.938;15.480;2023-05-13T16:38:39;100288.21;;;21.43;28.03
51926;BME280;37952;51.938;15.480;2023-05-13T16:41:45;100287.59;;;21.79;27.29
51926;BME280;37952;51.938;15.480;2023-05-13T16:48:41;100286.46;;;22.39;26.88
51926;BME280;37952;51.938;15.480;2023-05-13T16:51:44;100288.24;;;22.64;26.87
51926;BME280;37952;51.938;15.480;2023-05-13T16:54:46;100287.90;;;22.88;27.06
51926;BME280;37952;51.938;15.480;2023-05-13T17:01:49;100289.73;;;22.86;27.16
51926;BME280;37952;51.938;15.480;2023-05-13T17:08:46;100287.84;;;22.83;26.71
51926;BME280;37952;51.938;15.480;2023-05-13T17:11:49;100293.61;;;22.69;27.30
51926;BME280;37952;51.938;15.480;2023-05-13T17:14:52;100293.29;;;22.73;27.38
51926;BME280;37952;51.938;15.480;2023-05-13T17:22:01;100292.27;;;22.02;27.37
51926;BME280;37952;51.938;15.480;2023-05-13T17:25:04;100293.21;;;21.78;27.95
51926;BME280;37952;51.938;15.480;2023-05-13T17:28:07;100293.52;;;21.69;28.12
51926;BME280;37952;51.938;15.480;2023-05-13T17:31:10;100299.14;;;21.70;28.20
51926;BME280;37952;51.938;15.480;2023-05-13T17:34:13;100299.38;;;21.59;28.31
51926;BME280;37952;51.938;15.480;2023-05-13T17:41:11;100295.69;;;21.14;28.87
51926;BME280;37952;51.938;15.480;2023-05-13T17:44:14;100297.01;;;20.98;28.78
51926;BME280;37952;51.938;15.480;2023-05-13T17:51:09;100303.98;;;20.73;29.21
51926;BME280;37952;51.938;15.480;2023-05-13T18:01:23;100306.64;;;20.29;29.76
51926;BME280;37952;51.938;15.480;2023-05-13T18:04:26;100303.52;;;20.18;29.99
51926;BME280;37952;51.938;15.480;2023-05-13T18:07:29;100301.41;;;20.06;30.19
51926;BME280;37952;51.938;15.480;2023-05-13T18:10:32;100308.97;;;19.96;30.35
51926;BME280;37952;51.938;15.480;2023-05-13T18:13:34;100306.70;;;19.93;30.40
51926;BME280;37952;51.938;15.480;2023-05-13T18:16:37;100306.65;;;19.96;30.54
51926;BME280;37952;51.938;15.480;2023-05-13T18:19:40;100308.86;;;19.93;30.54